createdAt,value
2023-03-26T10:34:55.868Z,18.63
2023-03-26T10:37:52.450Z,20.54
2023-03-26T10:40:55.191Z,22.27
2023-03-26T10:43:36.458Z,22.40
2023-03-26T10:46:49.185Z,21.44
2023-03-26T10:49:35.853Z,21.23
2023-03-26T10:52:16.430Z,21.60
2023-03-26T10:55:08.998Z,21.68
2023-03-26T10:58:01.306Z,22.48
2023-03-26T11:00:41.493Z,23.91
2023-03-26T11:03:27.805Z,24.61
2023-03-26T11:06:33.936Z,25.09
2023-03-26T11:09:20.896Z,25.91
2023-03-26T11:12:01.225Z,26.55
2023-03-26T11:14:35.625Z,26.96
2023-03-26T11:17:40.181Z,27.79
2023-03-26T11:20:36.501Z,27.61
2023-03-26T11:23:17.307Z,26.82
2023-03-26T11:26:00.791Z,25.82
2023-03-26T11:29:03.645Z,25.29
2023-03-26T11:32:22.688Z,26.32
2023-03-26T11:35:17.409Z,27.56
2023-03-26T11:38:32.013Z,27.47
2023-03-26T11:41:05.700Z,25.93
2023-03-26T11:43:37.426Z,25.63
2023-03-26T11:46:13.317Z,24.79
2023-03-26T11:48:57.655Z,24.26
2023-03-26T11:51:35.860Z,23.31
2023-03-26T11:54:11.324Z,22.41
2023-03-26T11:57:04.764Z,21.39
2023-03-26T11:59:58.085Z,19.50
2023-03-26T12:02:39.530Z,19.14
2023-03-26T12:05:26.801Z,18.87
2023-03-26T12:08:03.040Z,18.66
2023-03-26T12:10:41.617Z,18.08
2023-03-26T12:13:39.797Z,17.52
2023-03-26T12:16:20.044Z,17.14
2023-03-26T12:19:28.951Z,16.97
2023-03-26T12:22:01.421Z,18.06
2023-03-26T12:24:36.554Z,20.48
2023-03-26T12:27:28.892Z,22.99
2023-03-26T12:30:20.691Z,25.82
2023-03-26T12:32:58.392Z,28.60
2023-03-26T12:35:35.066Z,29.22
2023-03-26T12:38:35.905Z,29.27
2023-03-26T12:44:43.318Z,27.52
2023-03-26T12:44:53.000Z,25.80
2023-03-26T12:47:59.507Z,24.00
2023-03-26T12:50:40.836Z,22.65
2023-03-26T12:53:53.263Z,22.34
2023-03-26T12:57:12.404Z,25.18
2023-03-26T13:00:35.067Z,29.37
2023-03-26T13:03:21.840Z,32.18
2023-03-26T13:05:59.653Z,34.11
2023-03-26T13:08:50.689Z,35.16
2023-03-26T13:11:50.310Z,34.87
2023-03-26T13:14:49.746Z,32.40
2023-03-26T13:17:54.619Z,29.93
2023-03-26T13:21:08.486Z,28.08
2023-03-26T13:24:17.575Z,26.64
2023-03-26T13:27:15.088Z,25.47
2023-03-26T13:30:05.446Z,24.73
2023-03-26T13:32:50.845Z,24.38
2023-03-26T13:35:43.024Z,24.26
2023-03-26T13:38:40.376Z,26.25
2023-03-26T13:41:40.478Z,30.86
2023-03-26T13:44:23.515Z,33.91
2023-03-26T13:47:41.149Z,34.11
2023-03-26T13:50:27.890Z,32.24
2023-03-26T13:53:12.546Z,30.45
2023-03-26T13:55:50.950Z,28.95
2023-03-26T13:58:34.804Z,28.09
2023-03-26T14:01:41.254Z,27.71
2023-03-26T14:04:25.486Z,27.40
2023-03-26T14:07:51.049Z,26.87
2023-03-26T14:10:31.236Z,26.07
2023-03-26T14:13:16.296Z,25.50
2023-03-26T14:16:21.365Z,24.90
2023-03-26T14:19:33.891Z,24.58
2023-03-26T14:23:05.756Z,24.04
2023-03-26T14:26:33.168Z,23.55
2023-03-26T14:30:02.812Z,23.06
2023-03-26T14:33:06.163Z,22.50
2023-03-26T14:35:56.733Z,21.34
2023-03-26T14:39:11.712Z,19.77
2023-03-26T14:41:59.629Z,18.23
2023-03-26T14:44:51.442Z,17.08
2023-03-26T14:47:27.657Z,16.61
2023-03-26T14:50:46.857Z,16.15
2023-03-26T14:53:48.978Z,-141.06
2023-03-26T14:57:04.317Z,-141.06
2023-03-26T15:00:20.299Z,-141.06
2023-03-26T15:03:17.015Z,-141.06
2023-03-26T15:06:16.477Z,-141.06
2023-03-26T15:09:17.718Z,-141.06
2023-03-26T15:12:13.569Z,-141.06
2023-03-26T15:14:55.144Z,-141.06
2023-03-26T15:18:12.359Z,-141.06
2023-03-26T15:21:43.394Z,-141.06
2023-03-26T15:24:32.729Z,-141.06
2023-03-26T15:27:32.994Z,-141.06
2023-03-26T15:31:06.664Z,-141.06
2023-03-26T15:34:38.648Z,-141.06
2023-03-26T15:37:21.174Z,-141.06
2023-03-26T15:40:11.515Z,-141.06
2023-03-26T15:43:01.711Z,-141.06
2023-03-26T15:46:11.282Z,-141.06
2023-03-26T15:49:12.556Z,-141.06
2023-03-26T15:52:15.835Z,-141.06
2023-03-26T15:55:11.285Z,-141.06
2023-03-26T15:58:18.906Z,-141.06
2023-03-26T16:01:25.143Z,-141.06
2023-03-26T16:04:50.360Z,-141.06
2023-03-26T16:08:11.447Z,-141.06
2023-03-26T16:10:56.374Z,-141.06
2023-03-26T16:13:55.095Z,-141.06
2023-03-26T16:16:56.386Z,-141.06
2023-03-26T16:19:49.735Z,-141.06
2023-03-26T16:22:43.651Z,-141.06
2023-03-26T16:25:29.246Z,-141.06
2023-03-26T16:28:15.022Z,-141.06
2023-03-26T16:31:36.225Z,-141.06
2023-03-26T16:34:29.424Z,-141.06
2023-03-26T16:37:18.251Z,-141.06
2023-03-26T16:39:51.195Z,-141.06
2023-03-26T16:42:42.730Z,-141.06
2023-03-26T16:45:47.188Z,-141.06
2023-03-26T16:48:56.756Z,-141.06
2023-03-26T16:52:20.718Z,-141.06
2023-03-26T16:55:34.627Z,-141.06
2023-03-26T16:58:45.937Z,-141.06
2023-03-26T17:01:46.014Z,-141.06
2023-03-26T17:04:23.721Z,-141.06
2023-03-26T17:07:20.336Z,-141.06
2023-03-26T17:10:31.267Z,-141.06
2023-03-26T17:13:24.891Z,-141.06
2023-03-26T17:16:16.318Z,-141.06
2023-03-26T17:19:15.744Z,-141.06
2023-03-26T17:22:32.845Z,-141.06
2023-03-26T17:25:27.931Z,-141.06
2023-03-26T17:28:37.302Z,-141.06
2023-03-26T17:31:41.572Z,-141.06
2023-03-26T17:34:54.577Z,-141.06
2023-03-26T17:37:41.128Z,-141.06
2023-03-26T17:40:52.016Z,-141.06
2023-03-26T17:43:50.191Z,-141.06
2023-03-26T17:46:38.188Z,-141.06
2023-03-26T17:49:15.068Z,-141.06
2023-03-26T17:52:05.695Z,-141.06
2023-03-26T17:54:55.529Z,-141.06
2023-03-26T17:57:46.585Z,-141.06
2023-03-26T18:00:25.789Z,-141.06
2023-03-26T18:03:08.026Z,-141.06
2023-03-26T18:05:40.711Z,-141.06
2023-03-26T18:08:40.918Z,-141.06
2023-03-26T18:11:46.589Z,-141.06
2023-03-26T18:15:18.725Z,-141.06
2023-03-26T18:17:51.428Z,-141.06
2023-03-26T18:20:28.369Z,-141.06
2023-03-26T18:23:28.759Z,-141.06
2023-03-26T18:26:21.784Z,-141.06
2023-03-26T18:29:16.075Z,-141.06
2023-03-26T18:32:13.272Z,-141.06
2023-03-26T18:34:58.869Z,-141.06
2023-03-26T18:37:34.818Z,-141.06
2023-03-26T18:40:24.750Z,-141.06
2023-03-26T18:42:59.931Z,-141.06
2023-03-26T18:45:36.293Z,-141.06
2023-03-26T18:48:20.567Z,-141.06
2023-03-26T18:51:06.138Z,-141.06
2023-03-26T18:53:47.725Z,-141.06
2023-03-26T18:56:42.495Z,-141.06
2023-03-26T18:59:35.331Z,-141.06
2023-03-26T19:02:14.066Z,-141.06
2023-03-26T19:04:49.365Z,-141.06
2023-03-26T19:07:27.107Z,-141.06
2023-03-26T19:10:01.484Z,-141.06
2023-03-26T19:12:35.856Z,-141.06
2023-03-26T19:15:15.614Z,-141.06
2023-03-26T19:17:56.822Z,-141.06
2023-03-26T19:20:37.325Z,-141.06
2023-03-26T19:23:21.351Z,-141.06
2023-03-26T19:25:56.410Z,-141.06
2023-03-26T19:28:37.080Z,-141.06
2023-03-26T19:31:23.606Z,-141.06
2023-03-26T19:34:14.109Z,-141.06
2023-03-26T19:37:01.258Z,-141.06
2023-03-26T19:39:42.022Z,-141.06
2023-03-26T19:42:26.811Z,-141.06
2023-03-26T19:45:03.283Z,-141.06
2023-03-26T19:47:48.426Z,-141.06
2023-03-26T19:50:35.490Z,-141.06
2023-03-26T19:53:22.684Z,-141.06
2023-03-26T19:56:19.819Z,-141.06
2023-03-26T19:58:52.711Z,-141.06
2023-03-26T20:01:28.962Z,-141.06
2023-03-26T20:04:06.696Z,-141.06
2023-03-26T20:06:43.613Z,-141.06
2023-03-26T20:09:16.779Z,-141.06
2023-03-26T20:11:50.462Z,-141.06
2023-03-26T20:14:26.421Z,-141.06
2023-03-26T20:16:59.445Z,-141.06
2023-03-26T20:19:31.941Z,-141.06
2023-03-26T20:22:05.960Z,-141.06
2023-03-26T20:24:40.017Z,-141.06
2023-03-26T20:27:14.109Z,-141.06
2023-03-26T20:29:46.809Z,-141.06
2023-03-26T20:32:26.451Z,-141.06
2023-03-26T20:34:59.624Z,-141.06
2023-03-26T20:37:32.270Z,-141.06
2023-03-26T20:40:06.872Z,-141.06
2023-03-26T20:42:40.579Z,-141.06
2023-03-26T20:45:18.030Z,-141.06
2023-03-26T20:47:51.649Z,-141.06
2023-03-26T20:50:24.838Z,-141.06
2023-03-26T20:52:59.933Z,-141.06
2023-03-26T20:55:32.321Z,-141.06
2023-03-26T20:58:04.936Z,-141.06
2023-03-26T21:00:37.761Z,-141.06
2023-03-26T21:03:14.463Z,-141.06
2023-03-26T21:05:48.716Z,-141.06
2023-03-26T21:08:23.158Z,-141.06
2023-03-26T21:10:58.872Z,-141.06
2023-03-26T21:14:01.212Z,-141.06
2023-03-26T21:16:34.250Z,-141.06
2023-03-26T21:19:07.268Z,-141.06
2023-03-26T21:22:03.201Z,-141.06
2023-03-26T21:25:03.548Z,-141.06
2023-03-26T21:27:52.069Z,-141.06
2023-03-26T21:30:25.027Z,-141.06
2023-03-26T21:33:00.176Z,-141.06
2023-03-26T21:38:22.550Z,-141.06
2023-03-26T21:40:58.779Z,-141.06
2023-03-26T21:43:32.052Z,-141.06
2023-03-26T21:46:05.034Z,-141.06
2023-03-26T21:48:37.903Z,-141.06
2023-03-26T21:51:14.974Z,-141.06
2023-03-26T21:53:49.074Z,-141.06
2023-03-26T21:56:42.619Z,-141.06
2023-03-26T21:59:56.030Z,-141.06
2023-03-26T22:02:43.748Z,-141.06
2023-03-26T22:05:23.307Z,-141.06
2023-03-26T22:08:01.975Z,-141.06
2023-03-26T22:10:34.664Z,-141.06
2023-03-26T22:13:07.138Z,-141.06
2023-03-26T22:15:39.524Z,-141.06
2023-03-26T22:18:12.126Z,-141.06
2023-03-26T22:20:46.754Z,-141.06
2023-03-26T22:23:20.047Z,-141.06
2023-03-26T22:25:52.772Z,-141.06
2023-03-26T22:28:25.299Z,-141.06
2023-03-26T22:30:58.377Z,-141.06
2023-03-26T22:33:31.523Z,-141.06
2023-03-26T22:36:06.080Z,-141.06
2023-03-26T22:38:56.863Z,-141.06
2023-03-26T22:41:32.060Z,-141.06
2023-03-26T22:44:16.752Z,-141.06
2023-03-26T22:46:52.576Z,-141.06
2023-03-26T22:49:27.555Z,-141.06
2023-03-26T22:52:00.003Z,-141.06
2023-03-26T22:54:33.273Z,-141.06
2023-03-26T22:57:05.801Z,-141.06
2023-03-26T22:59:38.270Z,-141.06
2023-03-26T23:02:12.515Z,-141.06
2023-03-26T23:04:46.399Z,-141.06
2023-03-26T23:07:18.856Z,-141.06
2023-03-26T23:09:53.215Z,-141.06
2023-03-26T23:12:25.939Z,-141.06
2023-03-26T23:14:58.491Z,-141.06
2023-03-26T23:17:35.539Z,-141.06
2023-03-26T23:20:15.502Z,-141.06
2023-03-26T23:22:48.255Z,-141.06
2023-03-26T23:25:20.840Z,-141.06
2023-03-26T23:27:53.898Z,-141.06
2023-03-26T23:30:26.298Z,-141.06
2023-03-26T23:32:58.765Z,-141.06
2023-03-26T23:35:31.262Z,-141.06
2023-03-26T23:38:03.698Z,-141.06
2023-03-26T23:40:36.089Z,-141.06
2023-03-26T23:43:08.585Z,-141.06
2023-03-26T23:45:43.528Z,-141.06
2023-03-26T23:48:17.702Z,-141.06
2023-03-26T23:51:03.182Z,-141.06
2023-03-26T23:53:37.248Z,-141.06
2023-03-26T23:56:13.415Z,-141.06
2023-03-26T23:58:45.889Z,-141.06
